createdAt,value
2017-12-10T00:02:03.953Z,92.02
2017-12-10T00:04:34.052Z,92.11
2017-12-10T00:07:04.852Z,92.10
2017-12-10T00:09:33.495Z,91.94
2017-12-10T00:12:05.758Z,91.80
2017-12-10T00:14:38.191Z,91.97
2017-12-10T00:17:09.444Z,91.81
2017-12-10T00:19:38.154Z,91.92
2017-12-10T00:22:06.875Z,91.85
2017-12-10T00:24:35.580Z,91.70
2017-12-10T00:27:03.931Z,91.65
2017-12-10T00:29:32.290Z,91.68
2017-12-10T00:32:00.914Z,91.78
2017-12-10T00:34:29.564Z,91.63
2017-12-10T00:36:58.126Z,91.59
2017-12-10T00:39:26.778Z,91.41
2017-12-10T00:41:55.489Z,91.58
2017-12-10T00:44:23.827Z,91.72
2017-12-10T00:46:52.533Z,91.68
2017-12-10T00:49:21.156Z,91.69
2017-12-10T00:51:49.494Z,91.89
2017-12-10T00:54:18.184Z,91.75
2017-12-10T00:56:46.848Z,91.90
2017-12-10T00:59:15.710Z,91.42
2017-12-10T01:01:53.470Z,91.11
2017-12-10T01:04:39.059Z,91.24
2017-12-10T01:07:09.006Z,91.22
2017-12-10T01:09:37.460Z,91.36
2017-12-10T01:12:06.127Z,91.47
2017-12-10T01:14:34.242Z,91.68
2017-12-10T01:17:02.601Z,91.75
2017-12-10T01:19:30.921Z,91.65
2017-12-10T01:21:59.306Z,91.48
2017-12-10T01:24:27.661Z,91.17
2017-12-10T01:26:56.370Z,91.16
2017-12-10T01:29:24.690Z,91.21
2017-12-10T01:31:53.017Z,91.50
2017-12-10T01:34:21.406Z,91.42
2017-12-10T01:36:50.033Z,91.27
2017-12-10T01:39:18.666Z,91.57
2017-12-10T01:41:47.036Z,91.57
2017-12-10T01:44:15.362Z,90.97
2017-12-10T01:46:43.736Z,91.07
2017-12-10T01:49:12.079Z,91.33
2017-12-10T01:51:40.441Z,91.43
2017-12-10T01:54:08.771Z,91.26
2017-12-10T01:56:37.148Z,91.28
2017-12-10T01:59:05.482Z,91.21
2017-12-10T02:01:33.623Z,90.85
2017-12-10T02:04:01.998Z,91.41
2017-12-10T02:06:30.337Z,91.29
2017-12-10T02:08:59.166Z,91.38
2017-12-10T02:11:27.486Z,91.56
2017-12-10T02:13:55.945Z,91.18
2017-12-10T02:16:24.282Z,91.05
2017-12-10T02:18:52.618Z,91.23
2017-12-10T02:21:21.010Z,91.23
2017-12-10T02:23:49.363Z,91.19
2017-12-10T02:26:17.766Z,91.14
2017-12-10T02:28:46.124Z,90.98
2017-12-10T02:31:14.508Z,90.87
2017-12-10T02:33:42.860Z,91.08
2017-12-10T02:36:11.207Z,91.39
2017-12-10T02:38:39.583Z,91.21
2017-12-10T02:41:07.934Z,91.47
2017-12-10T02:43:36.375Z,91.15
2017-12-10T02:46:04.893Z,91.39
2017-12-10T02:48:33.433Z,91.35
2017-12-10T02:51:01.834Z,91.30
2017-12-10T02:53:30.173Z,91.17
2017-12-10T02:55:58.516Z,91.27
2017-12-10T02:58:27.127Z,91.19
2017-12-10T03:00:55.503Z,91.17
2017-12-10T03:03:23.839Z,90.92
2017-12-10T03:05:52.238Z,90.97
2017-12-10T03:08:20.622Z,91.04
2017-12-10T03:10:49.263Z,91.26
2017-12-10T03:13:17.603Z,91.18
2017-12-10T03:15:45.989Z,91.29
2017-12-10T03:18:14.368Z,91.17
2017-12-10T03:20:42.772Z,91.01
2017-12-10T03:23:11.181Z,90.96
2017-12-10T03:25:39.582Z,91.02
2017-12-10T03:28:07.942Z,91.23
2017-12-10T03:30:36.364Z,91.09
2017-12-10T03:33:04.701Z,91.11
2017-12-10T03:35:33.083Z,91.10
2017-12-10T03:38:01.454Z,90.50
2017-12-10T03:40:29.852Z,90.78
2017-12-10T03:42:58.214Z,90.87
2017-12-10T03:45:26.630Z,90.89
2017-12-10T03:47:55.014Z,90.88
2017-12-10T03:50:23.391Z,91.09
2017-12-10T03:52:51.796Z,91.23
2017-12-10T03:55:20.150Z,91.08
2017-12-10T03:57:48.546Z,91.34
2017-12-10T04:00:16.883Z,91.17
2017-12-10T04:02:45.547Z,91.21
2017-12-10T04:05:13.884Z,91.19
2017-12-10T04:07:42.214Z,90.61
2017-12-10T04:10:10.578Z,90.63
2017-12-10T04:12:40.131Z,90.67
2017-12-10T04:15:08.846Z,90.56
2017-12-10T04:17:37.217Z,90.73
2017-12-10T04:20:05.537Z,91.08
2017-12-10T04:22:34.161Z,90.99
2017-12-10T04:25:02.869Z,91.00
2017-12-10T04:27:31.501Z,90.94
2017-12-10T04:29:59.961Z,90.96
2017-12-10T04:32:28.628Z,91.19
2017-12-10T04:34:57.011Z,91.05
2017-12-10T04:37:25.443Z,90.95
2017-12-10T04:39:54.070Z,90.97
2017-12-10T04:42:22.509Z,91.10
2017-12-10T04:44:50.838Z,90.96
2017-12-10T04:47:19.499Z,91.02
2017-12-10T04:49:47.887Z,90.85
2017-12-10T04:52:16.570Z,91.03
2017-12-10T04:54:44.960Z,90.71
2017-12-10T04:57:13.274Z,90.93
2017-12-10T04:59:41.986Z,91.01
2017-12-10T05:02:10.321Z,90.69
2017-12-10T05:04:38.977Z,90.70
2017-12-10T05:07:07.657Z,90.88
2017-12-10T05:09:35.983Z,90.88
2017-12-10T05:12:04.478Z,90.73
2017-12-10T05:14:32.797Z,90.45
2017-12-10T05:17:01.180Z,90.52
2017-12-10T05:19:29.514Z,90.74
2017-12-10T05:21:58.209Z,90.76
2017-12-10T05:24:26.571Z,90.68
2017-12-10T05:26:55.245Z,90.90
2017-12-10T05:29:23.918Z,91.01
2017-12-10T05:31:52.334Z,90.61
2017-12-10T05:34:20.691Z,90.74
2017-12-10T05:36:49.326Z,90.58
2017-12-10T05:39:17.706Z,90.82
2017-12-10T05:41:46.350Z,90.52
2017-12-10T05:44:15.000Z,90.67
2017-12-10T05:46:43.373Z,90.92
2017-12-10T05:49:13.664Z,90.75
2017-12-10T05:51:43.906Z,90.79
2017-12-10T05:54:14.110Z,90.98
2017-12-10T05:56:42.847Z,90.95
2017-12-10T05:59:11.529Z,91.06
2017-12-10T06:01:39.851Z,90.76
2017-12-10T06:04:08.478Z,90.49
2017-12-10T06:06:36.850Z,90.42
2017-12-10T06:09:04.977Z,90.76
2017-12-10T06:11:33.619Z,90.80
2017-12-10T06:14:02.507Z,90.79
2017-12-10T06:16:31.178Z,90.92
2017-12-10T06:18:59.581Z,90.98
2017-12-10T06:21:28.263Z,90.66
2017-12-10T06:23:56.623Z,90.91
2017-12-10T06:26:25.283Z,90.67
2017-12-10T06:28:53.648Z,90.76
2017-12-10T06:31:21.962Z,90.98
2017-12-10T06:33:50.317Z,90.98
2017-12-10T06:36:18.977Z,91.04
2017-12-10T06:38:47.350Z,91.08
2017-12-10T06:41:16.051Z,91.11
2017-12-10T06:43:44.386Z,91.09
2017-12-10T06:46:14.579Z,91.07
2017-12-10T06:48:42.905Z,91.10
2017-12-10T06:51:11.653Z,91.07
2017-12-10T06:53:40.135Z,91.12
2017-12-10T06:56:11.039Z,91.11
2017-12-10T06:58:39.665Z,91.07
2017-12-10T07:01:08.329Z,91.09
2017-12-10T07:03:36.842Z,91.12
2017-12-10T07:08:38.405Z,91.09
2017-12-10T07:11:06.725Z,91.12
2017-12-10T07:13:35.106Z,91.06
2017-12-10T07:16:03.443Z,91.03
2017-12-10T07:18:32.092Z,90.96
2017-12-10T07:21:00.467Z,90.91
2017-12-10T07:23:28.786Z,91.00
2017-12-10T07:25:57.150Z,91.05
2017-12-10T07:28:25.466Z,91.04
2017-12-10T07:30:53.842Z,91.02
2017-12-10T07:33:22.564Z,90.79
2017-12-10T07:35:50.884Z,91.01
2017-12-10T07:38:19.253Z,91.10
2017-12-10T07:40:47.574Z,91.05
2017-12-10T07:43:16.255Z,91.04
2017-12-10T07:45:44.605Z,91.12
2017-12-10T07:48:12.965Z,91.13
2017-12-10T07:50:41.682Z,91.15
2017-12-10T07:53:12.262Z,91.20
2017-12-10T07:55:41.873Z,91.26
2017-12-10T07:58:10.250Z,91.16
2017-12-10T08:00:44.118Z,91.23
2017-12-10T08:03:12.487Z,91.23
2017-12-10T08:05:41.821Z,91.25
2017-12-10T08:08:11.626Z,91.27
2017-12-10T08:10:41.646Z,91.29
2017-12-10T08:13:13.324Z,91.31
2017-12-10T08:15:42.096Z,91.36
2017-12-10T08:18:12.540Z,91.37
2017-12-10T08:20:40.915Z,91.34
2017-12-10T08:23:09.578Z,91.36
2017-12-10T08:25:37.958Z,91.31
2017-12-10T08:28:08.649Z,91.39
2017-12-10T08:30:37.017Z,91.39
2017-12-10T08:33:06.075Z,91.37
2017-12-10T08:35:34.893Z,91.37
2017-12-10T08:38:15.107Z,91.23
2017-12-10T08:43:51.228Z,91.39
2017-12-10T08:46:28.754Z,91.40
2017-12-10T08:49:13.403Z,91.42
2017-12-10T08:51:42.687Z,91.29
2017-12-10T08:54:11.045Z,91.35
2017-12-10T08:56:39.370Z,91.30
2017-12-10T08:59:07.561Z,91.37
2017-12-10T09:01:36.217Z,91.37
2017-12-10T09:04:04.571Z,91.36
2017-12-10T09:06:33.266Z,91.37
2017-12-10T09:09:01.578Z,91.37
2017-12-10T09:11:34.465Z,91.06
2017-12-10T09:14:03.378Z,91.31
2017-12-10T09:16:32.038Z,91.21
2017-12-10T09:19:00.406Z,91.33
2017-12-10T09:22:05.543Z,91.33
2017-12-10T09:24:34.243Z,91.35
2017-12-10T09:27:03.922Z,91.33
2017-12-10T09:29:32.325Z,91.31
2017-12-10T09:32:01.221Z,91.37
2017-12-10T09:34:29.621Z,91.35
2017-12-10T09:36:58.935Z,91.33
2017-12-10T09:39:34.753Z,91.35
2017-12-10T09:42:13.870Z,91.37
2017-12-10T09:44:55.375Z,91.39
2017-12-10T09:47:37.689Z,91.31
2017-12-10T09:50:20.906Z,91.31
2017-12-10T09:53:02.134Z,91.19
2017-12-10T09:55:31.366Z,91.12
2017-12-10T09:58:11.079Z,91.16
2017-12-10T10:00:42.266Z,91.14
2017-12-10T10:03:25.405Z,91.23
2017-12-10T10:06:10.211Z,91.04
2017-12-10T10:08:51.868Z,91.19
2017-12-10T10:11:25.831Z,91.29
2017-12-10T10:13:56.544Z,91.25
2017-12-10T10:16:35.837Z,91.30
2017-12-10T10:19:14.664Z,91.27
2017-12-10T10:21:57.116Z,91.36
2017-12-10T10:24:37.111Z,91.34
2017-12-10T10:27:15.564Z,91.34
2017-12-10T10:29:54.779Z,91.27
2017-12-10T10:35:16.175Z,91.00
2017-12-10T10:37:57.291Z,91.11
2017-12-10T10:40:38.324Z,91.21
2017-12-10T10:43:15.925Z,91.21
2017-12-10T10:45:51.753Z,90.77
2017-12-10T10:48:33.065Z,91.08
2017-12-10T10:51:14.218Z,91.17
2017-12-10T10:53:57.851Z,91.08
2017-12-10T10:56:36.511Z,90.85
2017-12-10T10:59:05.753Z,91.10
2017-12-10T11:01:41.220Z,90.81
2017-12-10T11:04:14.277Z,90.89
2017-12-10T11:06:46.574Z,90.82
2017-12-10T11:12:01.730Z,90.50
2017-12-10T11:14:39.401Z,90.59
2017-12-10T11:17:16.625Z,90.87
2017-12-10T11:19:54.970Z,90.52
2017-12-10T11:22:34.786Z,90.62
2017-12-10T11:25:17.170Z,90.72
2017-12-10T11:27:54.471Z,90.63
2017-12-10T11:30:30.298Z,90.85
2017-12-10T11:33:05.314Z,90.49
2017-12-10T11:35:47.049Z,90.26
2017-12-10T11:38:27.678Z,90.68
2017-12-10T11:41:07.988Z,90.53
2017-12-10T11:43:49.195Z,90.50
2017-12-10T11:46:25.279Z,90.46
2017-12-10T11:49:06.130Z,90.72
2017-12-10T11:51:44.672Z,90.65
2017-12-10T11:54:23.139Z,90.74
2017-12-10T11:57:04.182Z,90.76
2017-12-10T11:59:47.920Z,90.59
2017-12-10T12:05:02.082Z,90.73
2017-12-10T12:07:37.649Z,90.33
2017-12-10T12:10:19.122Z,90.35
2017-12-10T12:15:43.997Z,90.52
2017-12-10T12:18:13.513Z,90.49
2017-12-10T12:20:42.227Z,90.09
2017-12-10T12:23:10.574Z,90.49
2017-12-10T12:25:39.324Z,90.45
2017-12-10T12:28:07.778Z,90.27
2017-12-10T12:30:37.014Z,90.36
2017-12-10T12:33:14.040Z,90.25
